Time;durP1;ratioP1;P1;durP2;ratioP2;P2;SDS_P1;SDS_P2;PMS_P1;PMS_P2;Temp;Humidity;BMP_temperature;BMP_pressure;BME280_temperature;BME280_humidity;BME280_pressure;Samples;Min_cycle;Max_cycle;Signal;HPM_P1;HPM_P2
2023/03/30 00:00:53;;;;;;;8.68;2.45;;;16.30;90.70;;;;;;5007354;28;20690;-64
2023/03/30 00:03:21;;;;;;;3.17;1.83;;;16.60;90.90;;;;;;5009667;28;20186;-64
2023/03/30 00:05:47;;;;;;;6.15;2.65;;;16.30;91.00;;;;;;5006833;28;20190;-63
2023/03/30 00:08:13;;;;;;;5.38;2.35;;;16.50;91.30;;;;;;5007964;28;20236;-63
2023/03/30 00:10:39;;;;;;;6.00;2.20;;;16.50;91.00;;;;;;5005931;28;20214;-63
2023/03/30 00:13:06;;;;;;;5.38;1.67;;;16.40;90.80;;;;;;5008369;28;20222;-63
2023/03/30 00:15:33;;;;;;;7.60;2.63;;;16.50;90.80;;;;;;5008305;28;20272;-63
2023/03/30 00:18:00;;;;;;;8.52;2.30;;;16.70;91.00;;;;;;5007384;28;20191;-63
2023/03/30 00:20:26;;;;;;;6.00;2.13;;;16.50;91.00;;;;;;5007202;28;20289;-63
2023/03/30 00:22:51;;;;;;;8.77;2.40;;;16.50;91.10;;;;;;5004644;28;20226;-63
2023/03/30 00:25:17;;;;;;;6.70;2.37;;;16.70;91.20;;;;;;5008571;28;20194;-63
2023/03/30 00:27:43;;;;;;;6.70;2.07;;;16.50;91.10;;;;;;5006518;28;20348;-64
2023/03/30 00:30:15;;;;;;;9.90;3.00;;;16.50;91.10;;;;;;5006933;28;20450;-64
2023/03/30 00:32:41;;;;;;;5.72;2.40;;;16.50;91.20;;;;;;5007374;28;20250;-63
2023/03/30 00:35:07;;;;;;;12.30;4.10;;;16.40;91.20;;;;;;5006967;28;20649;-63
2023/03/30 00:37:36;;;;;;;21.83;6.40;;;16.60;91.60;;;;;;5006912;28;20213;-63
2023/03/30 00:40:06;;;;;;;11.90;4.35;;;16.80;92.10;;;;;;5007418;28;20452;-64
2023/03/30 00:42:36;;;;;;;12.70;3.70;;;16.60;92.50;;;;;;5005405;28;20245;-64
2023/03/30 00:45:07;;;;;;;13.00;4.63;;;16.50;92.00;;;;;;5006553;28;20321;-64
2023/03/30 00:47:37;;;;;;;10.18;3.78;;;16.40;92.20;;;;;;5007528;28;20281;-63
2023/03/30 00:50:04;;;;;;;8.00;2.55;;;16.50;92.50;;;;;;5005154;28;20252;-63
2023/03/30 00:52:31;;;;;;;12.82;3.28;;;16.50;92.40;;;;;;5006066;28;20215;-64
2023/03/30 00:54:58;;;;;;;8.40;2.42;;;16.50;92.40;;;;;;5006079;28;20183;-63
2023/03/30 00:57:25;;;;;;;5.38;2.90;;;16.60;92.90;;;;;;5003229;28;20186;-64
2023/03/30 00:59:52;;;;;;;5.88;2.53;;;16.50;92.90;;;;;;5003704;28;20545;-63
2023/03/30 01:02:20;;;;;;;6.28;3.50;;;16.20;92.70;;;;;;5006997;28;20214;-64
2023/03/30 01:04:47;;;;;;;5.90;2.45;;;16.30;93.10;;;;;;5006364;28;20194;-63
2023/03/30 01:07:14;;;;;;;7.88;2.47;;;16.20;93.20;;;;;;5007336;28;20183;-64
2023/03/30 01:09:41;;;;;;;5.38;3.17;;;16.30;93.00;;;;;;5007309;28;20807;-63
2023/03/30 01:12:07;;;;;;;8.48;2.58;;;16.40;93.30;;;;;;5009939;28;20249;-63
2023/03/30 01:14:34;;;;;;;8.38;3.20;;;16.30;93.10;;;;;;5011131;28;20183;-63
2023/03/30 01:17:08;;;;;;;6.88;2.22;;;16.20;92.90;;;;;;5010346;28;20636;-64
2023/03/30 01:19:52;;;;;;;5.78;2.50;;;16.30;93.10;;;;;;5009493;28;20187;-64
2023/03/30 01:22:49;;;;;;;4.85;2.35;;;16.30;93.20;;;;;;5009761;28;20382;-64
2023/03/30 01:25:20;;;;;;;6.18;3.20;;;16.30;93.30;;;;;;5011314;28;20179;-64
2023/03/30 01:27:51;;;;;;;6.60;2.30;;;16.30;93.40;;;;;;5009901;28;20231;-64
2023/03/30 01:30:40;;;;;;;6.85;3.05;;;16.40;93.60;;;;;;5022959;28;20191;-64
2023/03/30 01:33:18;;;;;;;9.85;3.05;;;16.30;93.70;;;;;;5010365;28;20228;-64
2023/03/30 01:35:44;;;;;;;8.45;3.50;;;16.10;94.90;;;;;;5008682;28;20195;-64
2023/03/30 01:38:28;;;;;;;8.27;2.67;;;16.10;94.80;;;;;;5009689;28;20205;-64
2023/03/30 01:41:08;;;;;;;9.23;3.75;;;16.00;95.20;;;;;;5009480;28;20199;-64
2023/03/30 01:43:43;;;;;;;6.40;2.28;;;16.10;95.50;;;;;;5010439;28;20237;-64
2023/03/30 01:46:36;;;;;;;6.47;2.70;;;16.20;96.00;;;;;;5025841;28;20206;-64
2023/03/30 01:49:39;;;;;;;4.45;2.75;;;16.10;96.30;;;;;;5011024;28;20252;-63
2023/03/30 01:52:14;;;;;;;6.47;2.40;;;16.00;96.90;;;;;;5008005;28;20326;-64
2023/03/30 01:54:50;;;;;;;13.38;3.58;;;16.10;97.30;;;;;;5010732;28;20592;-64
2023/03/30 01:57:24;;;;;;;9.43;2.60;;;15.90;97.90;;;;;;5008851;28;20186;-64
2023/03/30 01:59:53;;;;;;;4.38;2.03;;;15.90;98.50;;;;;;5008530;28;20257;-64
2023/03/30 02:02:23;;;;;;;7.43;2.85;;;16.00;98.80;;;;;;5009842;28;20237;-64
2023/03/30 02:04:52;;;;;;;5.60;2.97;;;16.00;98.90;;;;;;5003376;28;20557;-64
2023/03/30 02:07:23;;;;;;;10.52;2.67;;;15.80;98.90;;;;;;5006793;28;20233;-64
2023/03/30 02:09:52;;;;;;;4.32;2.40;;;15.70;98.80;;;;;;5008915;28;20186;-64
2023/03/30 02:12:19;;;;;;;7.60;2.33;;;15.80;99.00;;;;;;5002842;28;20214;-65
2023/03/30 02:14:47;;;;;;;7.07;3.03;;;15.80;99.00;;;;;;5010192;28;20317;-64
2023/03/30 02:17:31;;;;;;;7.75;2.83;;;15.80;99.20;;;;;;5008379;28;20179;-64
2023/03/30 02:19:58;;;;;;;10.60;3.15;;;15.90;99.50;;;;;;5008426;28;20183;-64
2023/03/30 02:22:25;;;;;;;7.32;3.53;;;15.90;99.60;;;;;;5008975;28;20218;-64
2023/03/30 02:24:54;;;;;;;9.27;3.22;;;15.60;99.60;;;;;;5009285;28;20187;-64
2023/03/30 02:27:21;;;;;;;4.35;2.40;;;15.70;99.70;;;;;;5008984;28;20676;-64
2023/03/30 02:29:47;;;;;;;8.30;3.22;;;15.60;99.50;;;;;;5009347;28;20226;-64
2023/03/30 02:32:25;;;;;;;10.02;2.72;;;15.40;99.40;;;;;;5005279;28;20221;-64
2023/03/30 02:35:06;;;;;;;5.05;2.67;;;15.60;99.70;;;;;;5003301;28;20178;-64
2023/03/30 02:37:53;;;;;;;6.97;2.40;;;15.60;99.60;;;;;;5008030;28;20175;-64
2023/03/30 02:40:28;;;;;;;8.50;2.80;;;15.50;99.50;;;;;;5009114;28;20201;-64
2023/03/30 02:43:28;;;;;;;7.88;2.70;;;15.50;99.50;;;;;;5008464;28;20217;-64
2023/03/30 02:46:19;;;;;;;5.68;2.63;;;15.60;99.60;;;;;;5009600;28;20183;-64
2023/03/30 02:49:12;;;;;;;7.63;2.85;;;15.40;99.60;;;;;;5009207;28;20203;-64
2023/03/30 02:51:44;;;;;;;8.10;3.10;;;15.60;99.50;;;;;;5023991;28;20225;-64
2023/03/30 02:54:25;;;;;;;7.80;3.35;;;16.00;99.90;;;;;;5011090;28;20214;-64
2023/03/30 02:57:02;;;;;;;5.70;2.58;;;15.70;99.90;;;;;;5005571;28;20190;-64
2023/03/30 02:59:43;;;;;;;5.70;2.80;;;15.60;99.90;;;;;;5007931;28;20683;-64
2023/03/30 03:02:16;;;;;;;8.38;2.00;;;15.40;99.90;;;;;;5007566;28;20217;-64
2023/03/30 03:04:45;;;;;;;8.95;3.08;;;15.50;99.90;;;;;;5008358;28;20183;-64
2023/03/30 03:07:12;;;;;;;5.88;2.55;;;15.50;99.90;;;;;;5009419;28;20194;-64
2023/03/30 03:09:38;;;;;;;7.82;3.28;;;15.40;99.90;;;;;;5009165;28;20190;-64
2023/03/30 03:12:04;;;;;;;5.90;2.90;;;15.50;99.90;;;;;;5006713;28;20317;-64
2023/03/30 03:14:30;;;;;;;7.07;3.00;;;15.30;99.90;;;;;;5009958;28;20268;-64
2023/03/30 03:16:55;;;;;;;5.93;2.70;;;14.80;99.90;;;;;;5006162;28;20258;-66
2023/03/30 03:19:21;;;;;;;8.03;3.20;;;15.00;99.90;;;;;;5008376;28;20179;-64
2023/03/30 03:21:47;;;;;;;9.18;2.97;;;14.90;99.90;;;;;;5008414;28;20297;-64
2023/03/30 03:24:16;;;;;;;9.30;2.70;;;14.60;99.90;;;;;;5007905;28;20316;-63
2023/03/30 03:26:42;;;;;;;6.03;2.65;;;14.70;99.90;;;;;;5008328;28;20191;-64
2023/03/30 03:29:08;;;;;;;9.43;3.00;;;14.60;99.90;;;;;;5009599;28;20193;-64
2023/03/30 03:31:34;;;;;;;9.87;3.23;;;14.50;99.90;;;;;;5008157;28;20203;-63
2023/03/30 03:34:00;;;;;;;11.45;4.43;;;14.70;99.90;;;;;;5006886;28;20663;-64
2023/03/30 03:36:26;;;;;;;11.25;2.80;;;14.50;99.90;;;;;;5008063;28;20191;-63
2023/03/30 03:38:52;;;;;;;7.37;3.83;;;14.50;99.90;;;;;;5009398;28;20185;-63
2023/03/30 03:41:17;;;;;;;7.57;3.60;;;14.30;99.90;;;;;;5007445;28;20531;-63
2023/03/30 03:43:43;;;;;;;7.27;2.93;;;14.40;99.90;;;;;;5007833;28;20183;-63
2023/03/30 03:46:09;;;;;;;11.73;3.90;;;14.20;99.90;;;;;;5007625;28;20237;-63
2023/03/30 03:48:35;;;;;;;5.97;2.70;;;14.10;99.90;;;;;;5008147;28;20461;-63
2023/03/30 03:51:02;;;;;;;6.90;3.00;;;14.20;99.90;;;;;;5007980;28;20597;-63
2023/03/30 03:53:28;;;;;;;9.02;3.63;;;14.20;99.90;;;;;;5008958;28;20465;-63
2023/03/30 03:55:54;;;;;;;5.47;2.80;;;14.30;99.90;;;;;;5007315;28;20269;-63
2023/03/30 03:58:20;;;;;;;9.27;3.67;;;14.30;99.90;;;;;;5009666;28;20245;-63
2023/03/30 04:00:46;;;;;;;11.23;3.88;;;14.20;99.90;;;;;;5007900;28;20218;-64
2023/03/30 04:03:12;;;;;;;5.43;3.17;;;14.20;99.90;;;;;;5009564;28;20195;-63
2023/03/30 04:05:40;;;;;;;10.02;3.05;;;14.30;99.90;;;;;;4999939;28;20953;-67
2023/03/30 04:08:10;;;;;;;7.55;3.42;;;14.50;99.90;;;;;;5006129;28;20182;-68
2023/03/30 04:10:37;;;;;;;5.68;2.78;;;14.50;99.90;;;;;;5006182;28;20182;-68
2023/03/30 04:13:03;;;;;;;7.30;3.55;;;14.20;99.90;;;;;;5005351;28;20210;-68
2023/03/30 04:15:28;;;;;;;15.30;4.67;;;14.10;99.90;;;;;;5006307;28;20230;-66
2023/03/30 04:17:57;;;;;;;8.43;3.03;;;14.30;99.90;;;;;;5008004;28;20449;-65
2023/03/30 04:20:24;;;;;;;11.20;3.03;;;14.20;99.90;;;;;;5006791;28;20206;-66
2023/03/30 04:22:52;;;;;;;7.55;3.35;;;14.10;99.90;;;;;;5007547;28;20218;-68
2023/03/30 04:25:24;;;;;;;8.95;4.70;;;14.30;99.90;;;;;;5011549;28;20536;-66
2023/03/30 04:27:51;;;;;;;9.98;3.67;;;14.30;99.90;;;;;;5002886;28;20183;-66
2023/03/30 04:30:18;;;;;;;8.55;4.10;;;14.30;99.90;;;;;;5006778;28;20242;-65
2023/03/30 04:32:53;;;;;;;13.63;4.75;;;14.40;99.90;;;;;;5005245;28;20238;-65
2023/03/30 04:35:19;;;;;;;7.38;3.13;;;14.40;99.90;;;;;;5009853;28;20173;-65
2023/03/30 04:37:45;;;;;;;10.20;3.77;;;14.20;99.90;;;;;;5006452;28;20790;-65
2023/03/30 04:40:12;;;;;;;8.88;3.67;;;14.00;99.90;;;;;;5006983;28;20507;-65
2023/03/30 04:42:38;;;;;;;8.07;3.47;;;14.20;99.90;;;;;;5003984;28;20228;-65
2023/03/30 04:45:09;;;;;;;8.48;4.55;;;14.20;99.90;;;;;;5009547;28;20640;-65
2023/03/30 04:47:35;;;;;;;7.55;3.10;;;14.20;99.90;;;;;;5011869;28;20193;-66
2023/03/30 04:50:01;;;;;;;10.60;4.57;;;14.20;99.90;;;;;;5010108;28;20197;-65
2023/03/30 04:52:27;;;;;;;9.65;3.92;;;14.20;99.90;;;;;;5012093;28;20245;-65
2023/03/30 04:54:53;;;;;;;8.13;3.08;;;13.90;99.90;;;;;;5014469;28;20190;-66
2023/03/30 04:57:19;;;;;;;9.40;4.03;;;14.00;99.90;;;;;;5008405;28;20909;-66
2023/03/30 04:59:45;;;;;;;7.53;4.03;;;14.00;99.90;;;;;;5011858;28;20286;-66
2023/03/30 05:02:11;;;;;;;5.87;3.10;;;14.10;99.90;;;;;;5011779;28;20242;-65
2023/03/30 05:04:38;;;;;;;7.50;3.15;;;14.00;99.90;;;;;;5010294;28;20217;-66
2023/03/30 05:07:05;;;;;;;7.80;4.13;;;14.10;99.90;;;;;;5010634;28;20226;-66
2023/03/30 05:09:31;;;;;;;9.05;3.53;;;14.20;99.90;;;;;;5008842;28;20191;-66
2023/03/30 05:11:57;;;;;;;10.35;4.15;;;14.20;99.90;;;;;;5007668;28;20538;-66
2023/03/30 05:14:22;;;;;;;9.33;3.80;;;14.00;99.90;;;;;;5010763;28;20657;-66
2023/03/30 05:16:48;;;;;;;10.83;3.37;;;14.00;99.90;;;;;;5012225;28;20714;-65
2023/03/30 05:19:14;;;;;;;6.60;3.40;;;14.20;99.90;;;;;;5008478;28;20638;-66
2023/03/30 05:21:40;;;;;;;7.57;3.90;;;14.10;99.90;;;;;;5011263;28;20641;-66
2023/03/30 05:24:06;;;;;;;6.27;3.63;;;14.10;99.90;;;;;;5012253;28;20337;-66
2023/03/30 05:26:31;;;;;;;11.07;5.70;;;14.10;99.90;;;;;;5013794;28;20815;-66
2023/03/30 05:28:57;;;;;;;7.40;3.73;;;14.30;99.90;;;;;;5011562;28;20437;-64
2023/03/30 05:31:23;;;;;;;13.70;5.07;;;14.20;99.90;;;;;;5010683;28;20211;-66
2023/03/30 05:33:50;;;;;;;9.90;4.00;;;14.10;99.90;;;;;;5010560;28;20218;-65
2023/03/30 05:36:16;;;;;;;8.57;5.85;;;14.10;99.90;;;;;;5009667;28;20434;-65
2023/03/30 05:38:42;;;;;;;7.80;3.92;;;14.20;99.90;;;;;;5009873;28;20190;-65
2023/03/30 05:41:08;;;;;;;14.90;7.47;;;14.10;99.90;;;;;;5008827;28;20203;-65
2023/03/30 05:43:33;;;;;;;8.50;4.03;;;14.20;99.90;;;;;;5010801;28;20297;-66
2023/03/30 05:46:01;;;;;;;5.97;3.70;;;14.40;99.90;;;;;;5010144;28;20214;-66
2023/03/30 05:48:27;;;;;;;8.30;3.53;;;14.20;99.90;;;;;;5009773;28;20206;-65
2023/03/30 05:50:52;;;;;;;9.10;4.07;;;14.20;99.90;;;;;;5007036;28;20222;-66
2023/03/30 05:53:18;;;;;;;11.53;3.50;;;14.30;99.90;;;;;;5010656;28;20207;-65
2023/03/30 05:55:48;;;;;;;13.63;4.10;;;14.30;99.90;;;;;;5006311;28;20180;-68
2023/03/30 05:58:15;;;;;;;11.05;3.72;;;14.30;99.90;;;;;;5000458;28;20195;-68
2023/03/30 06:00:43;;;;;;;8.55;3.85;;;14.40;99.90;;;;;;5005499;28;20222;-69
2023/03/30 06:03:10;;;;;;;8.40;3.53;;;14.30;99.90;;;;;;5009769;28;20616;-69
2023/03/30 06:05:42;;;;;;;7.72;3.72;;;14.50;99.90;;;;;;5011453;28;20193;-69
2023/03/30 06:08:08;;;;;;;8.85;4.57;;;14.50;99.90;;;;;;5008830;28;20247;-68
2023/03/30 06:10:34;;;;;;;10.40;4.35;;;14.40;99.90;;;;;;5009533;28;20190;-74
2023/03/30 06:13:00;;;;;;;15.00;4.55;;;14.50;99.90;;;;;;5009331;28;20300;-70
2023/03/30 06:15:26;;;;;;;11.73;4.80;;;14.40;99.90;;;;;;5009299;28;20225;-68
2023/03/30 06:17:52;;;;;;;8.40;4.55;;;14.50;99.90;;;;;;5007088;28;20516;-67
2023/03/30 06:20:20;;;;;;;9.70;4.33;;;14.40;99.90;;;;;;5011531;28;20688;-69
2023/03/30 06:22:46;;;;;;;9.23;4.50;;;14.40;99.90;;;;;;5010673;28;20433;-69
2023/03/30 06:25:12;;;;;;;9.55;3.97;;;14.20;99.90;;;;;;5007073;28;20712;-69
2023/03/30 06:27:39;;;;;;;9.18;3.90;;;14.40;99.90;;;;;;5009442;28;20210;-69
2023/03/30 06:30:08;;;;;;;13.27;5.10;;;14.40;99.90;;;;;;5009113;28;20245;-67
2023/03/30 06:32:34;;;;;;;9.63;4.43;;;14.50;99.90;;;;;;5009329;28;20217;-69
2023/03/30 06:35:01;;;;;;;12.23;4.00;;;14.70;99.90;;;;;;5009546;28;20663;-70
2023/03/30 06:37:27;;;;;;;6.93;4.25;;;14.70;99.90;;;;;;5008941;28;20210;-68
2023/03/30 06:39:53;;;;;;;14.10;5.95;;;15.00;99.90;;;;;;5009106;28;20180;-68
2023/03/30 06:42:18;;;;;;;13.73;5.00;;;14.80;99.90;;;;;;5007662;28;20265;-68
2023/03/30 06:44:44;;;;;;;11.70;5.30;;;14.90;99.90;;;;;;5011651;28;20265;-68
2023/03/30 06:47:09;;;;;;;15.80;12.17;;;14.80;99.90;;;;;;5007989;28;20191;-68
2023/03/30 06:49:35;;;;;;;15.70;5.70;;;14.80;99.90;;;;;;5007403;28;20190;-69
2023/03/30 06:52:01;;;;;;;13.20;6.73;;;14.70;99.90;;;;;;5013731;28;20571;-68
2023/03/30 06:54:27;;;;;;;20.77;12.57;;;14.80;99.90;;;;;;5009768;28;20854;-68
2023/03/30 06:56:52;;;;;;;11.97;5.80;;;15.00;99.90;;;;;;5006514;28;20190;-68
2023/03/30 06:59:18;;;;;;;10.30;4.63;;;15.20;99.90;;;;;;5010277;28;20241;-68
2023/03/30 07:01:44;;;;;;;13.00;4.30;;;14.90;99.90;;;;;;5008287;28;20634;-68
2023/03/30 07:04:10;;;;;;;8.95;4.95;;;15.20;99.90;;;;;;5008028;28;20186;-70
2023/03/30 07:06:36;;;;;;;12.80;4.77;;;15.10;99.90;;;;;;5005929;28;20186;-69
2023/03/30 07:09:04;;;;;;;7.57;3.30;;;14.90;99.90;;;;;;5007436;28;20469;-70
2023/03/30 07:11:30;;;;;;;10.30;4.03;;;15.20;99.90;;;;;;5010211;28;20210;-68
2023/03/30 07:13:57;;;;;;;11.40;4.72;;;15.10;99.90;;;;;;5010572;28;20204;-69
2023/03/30 07:16:23;;;;;;;8.38;4.10;;;15.40;99.90;;;;;;5009140;28;20640;-69
2023/03/30 07:18:49;;;;;;;10.57;4.78;;;15.30;99.90;;;;;;5009199;28;20207;-70
2023/03/30 07:21:15;;;;;;;13.20;3.77;;;15.20;99.90;;;;;;5006828;28;20224;-67
2023/03/30 07:23:42;;;;;;;8.70;3.57;;;15.00;99.90;;;;;;5007941;28;20450;-67
2023/03/30 07:26:08;;;;;;;10.82;3.97;;;15.20;99.90;;;;;;5008410;28;20260;-66
2023/03/30 07:28:37;;;;;;;13.80;4.10;;;15.30;99.90;;;;;;5007450;28;20202;-66
2023/03/30 07:31:07;;;;;;;8.02;3.63;;;15.20;99.90;;;;;;5009283;28;20212;-68
2023/03/30 07:33:35;;;;;;;14.43;3.95;;;15.10;99.90;;;;;;5005945;28;20218;-68
2023/03/30 07:36:02;;;;;;;11.65;5.10;;;15.00;99.90;;;;;;5006073;28;20210;-68
2023/03/30 07:38:27;;;;;;;7.90;3.65;;;14.80;99.90;;;;;;5022486;28;20233;-68
2023/03/30 07:40:53;;;;;;;9.17;3.63;;;14.60;99.90;;;;;;5008688;28;20202;-68
2023/03/30 07:43:19;;;;;;;8.63;3.17;;;14.90;99.90;;;;;;5006682;28;20441;-68
2023/03/30 07:45:45;;;;;;;7.10;4.30;;;14.50;99.90;;;;;;5002824;28;20952;-66
2023/03/30 07:48:11;;;;;;;8.83;4.33;;;14.60;99.90;;;;;;5007917;28;20484;-67
2023/03/30 07:50:36;;;;;;;6.47;4.30;;;14.60;99.90;;;;;;5007019;28;20555;-67
2023/03/30 07:53:02;;;;;;;7.03;4.37;;;14.20;99.90;;;;;;5009176;28;20546;-67
2023/03/30 07:55:27;;;;;;;6.57;3.97;;;14.20;99.90;;;;;;5007099;28;20182;-67
2023/03/30 07:57:54;;;;;;;7.90;3.10;;;14.40;99.90;;;;;;5004696;28;20179;-66
2023/03/30 08:00:20;;;;;;;5.05;2.70;;;14.20;99.90;;;;;;5004376;28;20210;-66
2023/03/30 08:02:46;;;;;;;6.07;3.50;;;14.10;99.90;;;;;;4999651;28;20238;-66
2023/03/30 08:05:12;;;;;;;6.97;3.07;;;14.20;99.90;;;;;;5008255;28;20656;-66
2023/03/30 08:07:38;;;;;;;5.65;2.80;;;14.20;99.90;;;;;;5008679;28;20809;-66
2023/03/30 08:10:04;;;;;;;7.07;3.10;;;14.10;99.90;;;;;;5006157;28;20183;-67
2023/03/30 08:12:29;;;;;;;4.90;3.13;;;14.50;99.90;;;;;;5008768;28;20639;-67
2023/03/30 08:14:55;;;;;;;4.67;3.20;;;14.50;99.90;;;;;;5010189;28;20187;-67
2023/03/30 08:17:21;;;;;;;9.57;3.83;;;14.60;99.90;;;;;;5006814;28;20187;-67
2023/03/30 08:19:47;;;;;;;8.97;4.00;;;14.40;99.90;;;;;;5010159;28;20524;-66
2023/03/30 08:22:12;;;;;;;12.70;4.53;;;14.50;99.90;;;;;;5014452;28;20222;-67
2023/03/30 08:24:38;;;;;;;11.53;4.00;;;14.50;99.90;;;;;;5014720;28;20644;-67
2023/03/30 08:27:03;;;;;;;7.33;3.70;;;14.80;99.90;;;;;;5010626;28;20225;-66
2023/03/30 08:29:30;;;;;;;11.10;5.40;;;14.60;99.90;;;;;;5005646;28;20183;-66
2023/03/30 08:31:56;;;;;;;10.60;4.22;;;14.70;99.90;;;;;;5013180;28;20210;-66
2023/03/30 08:34:22;;;;;;;3.63;2.57;;;14.60;99.90;;;;;;5013896;28;20364;-66
2023/03/30 08:36:48;;;;;;;4.65;3.30;;;14.80;99.90;;;;;;5013243;28;20982;-64
2023/03/30 08:39:14;;;;;;;7.93;3.53;;;14.60;99.90;;;;;;5014010;28;20186;-64
2023/03/30 08:42:06;;;;;;;3.53;3.05;;;14.60;99.90;;;;;;5004103;28;20634;-65
2023/03/30 08:44:39;;;;;;;7.03;2.90;;;14.80;99.90;;;;;;5004093;28;20546;-65
2023/03/30 08:47:15;;;;;;;3.63;2.45;;;14.60;99.90;;;;;;5012900;28;20194;-66
2023/03/30 08:49:55;;;;;;;4.10;2.50;;;14.60;99.90;;;;;;5014915;28;20202;-66
2023/03/30 08:52:23;;;;;;;4.10;2.60;;;14.70;99.90;;;;;;5012760;28;20205;-69
2023/03/30 08:54:50;;;;;;;5.05;2.40;;;14.60;99.90;;;;;;5019423;28;20228;-69
2023/03/30 08:57:28;;;;;;;5.13;2.55;;;14.70;99.90;;;;;;5011305;28;20672;-67
2023/03/30 09:00:06;;;;;;;3.55;2.50;;;14.60;99.90;;;;;;5013967;28;20644;-67
2023/03/30 09:02:41;;;;;;;4.70;2.60;;;14.50;99.90;;;;;;5014568;28;20203;-67
2023/03/30 09:05:39;;;;;;;6.78;2.42;;;14.50;99.90;;;;;;5011935;28;20660;-66
2023/03/30 09:08:27;;;;;;;3.63;2.22;;;14.20;99.90;;;;;;5012369;28;20199;-67
2023/03/30 09:10:59;;;;;;;4.85;2.88;;;14.30;99.90;;;;;;5008725;28;20669;-66
2023/03/30 09:13:30;;;;;;;6.80;3.00;;;14.20;99.90;;;;;;5014790;28;20211;-66
2023/03/30 09:16:30;;;;;;;5.68;2.55;;;14.30;99.90;;;;;;5014432;28;20179;-66
2023/03/30 09:18:58;;;;;;;2.28;1.92;;;14.20;99.90;;;;;;5010132;28;20559;-66
2023/03/30 09:21:29;;;;;;;3.70;2.38;;;14.00;99.90;;;;;;5013545;28;20201;-66
2023/03/30 09:24:05;;;;;;;5.63;3.03;;;14.30;99.90;;;;;;5014985;28;20183;-66
2023/03/30 09:27:00;;;;;;;3.88;2.10;;;13.80;99.90;;;;;;5010334;28;20505;-66
2023/03/30 09:29:30;;;;;;;3.13;1.98;;;14.00;99.90;;;;;;5014213;28;20195;-66
2023/03/30 09:32:11;;;;;;;2.47;2.28;;;13.90;99.90;;;;;;5009104;28;20760;-66
2023/03/30 09:34:46;;;;;;;3.13;2.35;;;13.80;99.90;;;;;;5009518;28;20637;-66
2023/03/30 09:37:17;;;;;;;2.90;2.20;;;14.10;99.90;;;;;;5010928;28;20206;-66
2023/03/30 09:39:44;;;;;;;3.17;2.33;;;14.30;99.90;;;;;;5008933;28;20652;-67
2023/03/30 09:42:32;;;;;;;3.42;2.00;;;14.10;99.90;;;;;;5007795;28;20302;-67
2023/03/30 09:45:29;;;;;;;5.00;2.33;;;14.40;99.90;;;;;;5009767;28;20270;-66
2023/03/30 09:47:55;;;;;;;3.83;2.33;;;14.40;99.90;;;;;;5012298;28;20233;-66
2023/03/30 09:50:27;;;;;;;3.85;2.75;;;14.20;99.90;;;;;;5007511;28;20583;-66
2023/03/30 09:52:59;;;;;;;4.85;2.53;;;14.40;99.90;;;;;;5011412;28;20672;-67
2023/03/30 09:55:25;;;;;;;3.88;2.58;;;14.20;99.90;;;;;;5008960;28;20190;-67
2023/03/30 09:57:52;;;;;;;2.40;2.20;;;14.30;99.90;;;;;;5010842;28;20183;-67
2023/03/30 10:00:23;;;;;;;3.03;2.70;;;14.70;99.90;;;;;;5012570;28;20194;-67
2023/03/30 10:02:57;;;;;;;19.00;10.20;;;14.70;99.90;;;;;;5009072;28;20206;-65
2023/03/30 10:05:23;;;;;;;5.40;3.60;;;14.60;99.90;;;;;;5008373;28;20542;-65
2023/03/30 10:07:58;;;;;;;3.65;2.92;;;14.70;99.90;;;;;;5010629;28;20206;-67
2023/03/30 10:10:33;;;;;;;4.07;2.50;;;14.80;99.90;;;;;;5022220;28;20216;-65
2023/03/30 10:13:18;;;;;;;3.10;2.85;;;14.80;99.90;;;;;;5009092;28;20206;-66
2023/03/30 10:15:47;;;;;;;2.85;2.17;;;15.20;99.90;;;;;;5008918;28;20182;-66
2023/03/30 10:18:22;;;;;;;6.68;3.70;;;16.00;99.90;;;;;;5010511;28;20657;-66
2023/03/30 10:21:02;;;;;;;2.60;2.40;;;15.60;99.90;;;;;;5005489;28;20237;-66
2023/03/30 10:23:38;;;;;;;3.92;3.63;;;16.00;99.90;;;;;;5025341;28;20269;-66
2023/03/30 10:26:12;;;;;;;4.80;3.55;;;16.10;99.90;;;;;;5006529;28;20549;-66
2023/03/30 10:28:40;;;;;;;4.32;2.85;;;16.00;99.90;;;;;;5010361;28;20206;-66
2023/03/30 10:31:15;;;;;;;3.90;2.90;;;16.50;99.90;;;;;;5006798;28;20203;-66
2023/03/30 10:33:42;;;;;;;5.35;3.10;;;16.80;99.90;;;;;;5010096;28;20210;-66
2023/03/30 10:36:10;;;;;;;3.72;2.50;;;17.20;99.90;;;;;;5007088;28;20187;-66
2023/03/30 10:38:39;;;;;;;3.85;3.42;;;17.00;99.90;;;;;;5010214;28;20218;-65
2023/03/30 10:41:15;;;;;;;3.85;2.58;;;16.60;99.90;;;;;;5008969;28;20215;-66
2023/03/30 10:43:43;;;;;;;3.17;2.85;;;16.60;99.90;;;;;;5009515;28;20630;-66
2023/03/30 10:46:17;;;;;;;3.60;3.05;;;16.70;99.90;;;;;;5008584;28;20218;-66
2023/03/30 10:49:16;;;;;;;3.30;3.00;;;16.40;99.90;;;;;;5009958;28;20201;-66
2023/03/30 10:52:15;;;;;;;5.28;2.97;;;16.20;99.90;;;;;;5003931;28;20233;-66
2023/03/30 10:55:09;;;;;;;2.58;2.20;;;15.90;99.90;;;;;;5009293;28;21962;-66
2023/03/30 10:57:45;;;;;;;4.63;3.03;;;15.80;99.90;;;;;;5005230;28;20179;-65
2023/03/30 11:00:28;;;;;;;3.22;2.75;;;15.80;99.90;;;;;;5010400;28;20195;-65
2023/03/30 11:03:13;;;;;;;3.70;3.28;;;15.80;99.90;;;;;;5007543;28;20313;-65
2023/03/30 11:05:44;;;;;;;3.22;2.95;;;15.90;99.90;;;;;;5008317;28;20190;-65
2023/03/30 11:08:18;;;;;;;5.88;3.25;;;16.10;99.90;;;;;;5011145;28;20187;-65
2023/03/30 11:10:51;;;;;;;3.75;2.53;;;16.00;99.90;;;;;;5008009;28;20210;-65
2023/03/30 11:13:37;;;;;;;4.32;2.90;;;16.20;99.90;;;;;;5005914;28;20218;-65
2023/03/30 11:16:26;;;;;;;6.95;2.85;;;15.90;99.90;;;;;;5007015;28;20211;-66
2023/03/30 11:19:13;;;;;;;9.82;3.53;;;16.40;99.90;;;;;;5005401;28;20205;-66
2023/03/30 11:21:56;;;;;;;3.60;2.70;;;16.60;99.90;;;;;;5005647;28;20210;-66
2023/03/30 11:24:27;;;;;;;4.38;3.13;;;16.70;99.90;;;;;;5007366;28;20541;-66
2023/03/30 11:27:05;;;;;;;4.60;3.00;;;16.90;99.90;;;;;;5004983;28;20594;-65
2023/03/30 11:30:14;;;;;;;4.47;3.65;;;16.70;99.90;;;;;;5006846;28;20186;-65
2023/03/30 11:32:57;;;;;;;4.80;2.92;;;16.80;99.90;;;;;;5004399;28;20237;-66
2023/03/30 11:35:46;;;;;;;7.07;3.28;;;16.60;99.90;;;;;;5004788;28;20182;-66
2023/03/30 11:38:26;;;;;;;4.10;3.20;;;17.20;99.90;;;;;;5008628;28;20301;-66
2023/03/30 11:41:00;;;;;;;5.47;3.03;;;17.40;99.90;;;;;;5004470;28;20265;-67
2023/03/30 11:43:28;;;;;;;4.55;2.70;;;17.70;99.90;;;;;;5008529;28;20183;-67
2023/03/30 11:46:38;;;;;;;4.55;3.03;;;18.10;99.90;;;;;;5040404;28;20183;-68
2023/03/30 11:49:42;;;;;;;5.30;3.25;;;17.80;99.90;;;;;;5005698;28;20664;-66
2023/03/30 11:52:35;;;;;;;5.75;2.90;;;17.60;99.90;;;;;;5006527;28;20226;-67
2023/03/30 11:55:07;;;;;;;6.93;3.33;;;17.50;99.90;;;;;;5008767;28;20215;-66
2023/03/30 11:57:47;;;;;;;4.40;3.05;;;17.20;99.90;;;;;;5005231;28;20182;-67
2023/03/30 12:00:27;;;;;;;5.30;3.78;;;17.50;99.90;;;;;;5009109;28;20269;-67
2023/03/30 12:03:20;;;;;;;6.15;3.45;;;17.50;99.90;;;;;;5006447;28;20222;-66
2023/03/30 12:05:59;;;;;;;5.85;3.95;;;17.50;99.90;;;;;;5003025;28;20589;-66
2023/03/30 12:08:40;;;;;;;4.38;3.28;;;17.50;99.90;;;;;;5005663;28;20177;-66
2023/03/30 12:11:32;;;;;;;3.58;3.17;;;17.60;99.90;;;;;;5008500;28;20609;-67
2023/03/30 12:13:59;;;;;;;4.28;3.20;;;17.50;99.90;;;;;;5005781;28;20344;-66
2023/03/30 12:16:43;;;;;;;4.13;3.20;;;17.30;99.90;;;;;;5010055;28;20186;-66
2023/03/30 12:19:15;;;;;;;5.10;3.25;;;17.40;99.90;;;;;;5004071;28;20187;-67
2023/03/30 12:22:11;;;;;;;6.32;2.78;;;17.50;99.90;;;;;;5007976;28;20207;-67
2023/03/30 12:24:55;;;;;;;4.07;2.97;;;17.20;99.90;;;;;;5004095;28;20217;-67
2023/03/30 12:27:21;;;;;;;6.35;3.40;;;17.00;99.90;;;;;;5005586;28;20652;-66
2023/03/30 12:29:52;;;;;;;10.30;4.30;;;17.10;99.90;;;;;;5008285;28;20284;-68
2023/03/30 12:32:28;;;;;;;5.53;3.88;;;16.70;99.90;;;;;;5005123;28;20218;-67
2023/03/30 12:34:55;;;;;;;8.75;4.00;;;16.50;99.90;;;;;;5005789;28;20253;-67
2023/03/30 12:37:34;;;;;;;5.30;3.70;;;16.70;99.90;;;;;;5006715;28;20183;-67
2023/03/30 12:40:09;;;;;;;4.63;3.20;;;17.00;99.90;;;;;;5006292;28;20205;-67
2023/03/30 12:42:54;;;;;;;6.85;4.25;;;17.30;99.90;;;;;;5007097;28;20205;-68
2023/03/30 12:45:23;;;;;;;9.48;5.20;;;17.50;99.90;;;;;;5005679;28;20183;-67
2023/03/30 12:48:07;;;;;;;3.75;3.45;;;17.60;99.90;;;;;;5005171;28;20183;-66
2023/03/30 12:50:55;;;;;;;6.13;4.20;;;17.80;99.90;;;;;;5005463;28;20186;-66
2023/03/30 12:53:39;;;;;;;5.13;3.70;;;18.00;99.90;;;;;;5005971;28;20203;-67
2023/03/30 12:56:25;;;;;;;8.05;4.25;;;18.10;99.90;;;;;;5006833;28;20214;-67
2023/03/30 12:59:07;;;;;;;6.53;4.07;;;18.10;99.40;;;;;;5008693;28;20229;-66
2023/03/30 13:02:00;;;;;;;6.25;3.40;;;18.30;98.60;;;;;;5007879;28;20217;-66
2023/03/30 13:04:31;;;;;;;4.35;3.72;;;18.00;99.00;;;;;;5006545;28;20183;-67
2023/03/30 13:07:01;;;;;;;6.05;3.58;;;18.10;99.50;;;;;;5009689;28;20179;-67
2023/03/30 13:09:30;;;;;;;5.53;3.47;;;18.60;98.70;;;;;;5012058;28;20195;-69